sensor_id;sensor_type;location;lat;lon;timestamp;temperature;humidity
19232;DHT22;9750;48.730;10.294;2022-09-16T00:00:41;14.20;99.90
19232;DHT22;9750;48.730;10.294;2022-09-16T00:03:10;14.20;99.90
19232;DHT22;9750;48.730;10.294;2022-09-16T00:05:40;14.10;99.90
19232;DHT22;9750;48.730;10.294;2022-09-16T00:08:08;14.20;99.90
19232;DHT22;9750;48.730;10.294;2022-09-16T00:10:35;14.10;99.90
19232;DHT22;9750;48.730;10.294;2022-09-16T00:13:03;14.10;99.90
19232;DHT22;9750;48.730;10.294;2022-09-16T00:15:31;14.10;99.90
19232;DHT22;9750;48.730;10.294;2022-09-16T00:17:58;14.10;99.90
19232;DHT22;9750;48.730;10.294;2022-09-16T00:20:27;14.20;99.90
19232;DHT22;9750;48.730;10.294;2022-09-16T00:22:54;14.10;99.90
19232;DHT22;9750;48.730;10.294;2022-09-16T00:25:21;14.10;99.90
19232;DHT22;9750;48.730;10.294;2022-09-16T00:27:49;14.10;99.90
19232;DHT22;9750;48.730;10.294;2022-09-16T00:30:16;14.10;99.90
19232;DHT22;9750;48.730;10.294;2022-09-16T00:32:44;14.10;99.90
19232;DHT22;9750;48.730;10.294;2022-09-16T00:35:11;14.10;99.90
19232;DHT22;9750;48.730;10.294;2022-09-16T00:37:40;14.00;99.90
19232;DHT22;9750;48.730;10.294;2022-09-16T00:40:08;14.10;99.90
19232;DHT22;9750;48.730;10.294;2022-09-16T00:46:00;14.00;99.90
19232;DHT22;9750;48.730;10.294;2022-09-16T00:48:29;14.00;99.90
19232;DHT22;9750;48.730;10.294;2022-09-16T00:51:00;14.00;99.90
19232;DHT22;9750;48.730;10.294;2022-09-16T00:53:33;14.00;99.90
19232;DHT22;9750;48.730;10.294;2022-09-16T00:56:06;13.90;99.90
19232;DHT22;9750;48.730;10.294;2022-09-16T00:58:37;14.00;99.90
19232;DHT22;9750;48.730;10.294;2022-09-16T01:01:05;13.90;99.90
19232;DHT22;9750;48.730;10.294;2022-09-16T01:03:36;13.90;99.90
19232;DHT22;9750;48.730;10.294;2022-09-16T01:06:05;13.90;99.90
19232;DHT22;9750;48.730;10.294;2022-09-16T01:08:34;13.90;99.90
19232;DHT22;9750;48.730;10.294;2022-09-16T01:11:01;13.90;99.90
19232;DHT22;9750;48.730;10.294;2022-09-16T01:13:29;13.90;99.90
19232;DHT22;9750;48.730;10.294;2022-09-16T01:16:00;13.90;99.90
19232;DHT22;9750;48.730;10.294;2022-09-16T01:18:35;13.80;99.90
19232;DHT22;9750;48.730;10.294;2022-09-16T01:21:17;13.90;99.90
19232;DHT22;9750;48.730;10.294;2022-09-16T01:24:05;13.80;99.90
19232;DHT22;9750;48.730;10.294;2022-09-16T01:30:10;13.80;99.90
19232;DHT22;9750;48.730;10.294;2022-09-16T01:32:48;13.80;99.90
19232;DHT22;9750;48.730;10.294;2022-09-16T01:35:24;13.80;99.90
19232;DHT22;9750;48.730;10.294;2022-09-16T01:38:04;13.70;99.90
19232;DHT22;9750;48.730;10.294;2022-09-16T01:40:38;13.70;99.90
19232;DHT22;9750;48.730;10.294;2022-09-16T01:43:14;13.70;99.90
19232;DHT22;9750;48.730;10.294;2022-09-16T01:45:49;13.60;99.90
19232;DHT22;9750;48.730;10.294;2022-09-16T01:48:22;13.60;99.90
19232;DHT22;9750;48.730;10.294;2022-09-16T01:51:00;13.60;99.90
19232;DHT22;9750;48.730;10.294;2022-09-16T01:53:33;13.60;99.90
19232;DHT22;9750;48.730;10.294;2022-09-16T01:56:07;13.70;99.90
19232;DHT22;9750;48.730;10.294;2022-09-16T01:58:40;13.70;99.90
19232;DHT22;9750;48.730;10.294;2022-09-16T02:01:13;13.70;99.90
19232;DHT22;9750;48.730;10.294;2022-09-16T02:03:46;13.70;99.90
19232;DHT22;9750;48.730;10.294;2022-09-16T02:06:18;13.70;99.90
19232;DHT22;9750;48.730;10.294;2022-09-16T02:08:50;13.70;99.90
19232;DHT22;9750;48.730;10.294;2022-09-16T02:11:19;13.70;99.90
19232;DHT22;9750;48.730;10.294;2022-09-16T02:13:51;13.70;99.90
19232;DHT22;9750;48.730;10.294;2022-09-16T02:16:23;13.70;99.90
19232;DHT22;9750;48.730;10.294;2022-09-16T02:18:57;13.70;99.90
19232;DHT22;9750;48.730;10.294;2022-09-16T02:21:28;13.70;99.90
19232;DHT22;9750;48.730;10.294;2022-09-16T02:24:00;13.70;99.90
19232;DHT22;9750;48.730;10.294;2022-09-16T02:26:32;13.70;99.90
19232;DHT22;9750;48.730;10.294;2022-09-16T02:29:04;13.70;99.90
19232;DHT22;9750;48.730;10.294;2022-09-16T02:31:36;13.60;99.90
19232;DHT22;9750;48.730;10.294;2022-09-16T02:34:08;13.60;99.90
19232;DHT22;9750;48.730;10.294;2022-09-16T02:36:39;13.60;99.90
19232;DHT22;9750;48.730;10.294;2022-09-16T02:39:10;13.60;99.90
19232;DHT22;9750;48.730;10.294;2022-09-16T02:41:40;13.60;99.90
19232;DHT22;9750;48.730;10.294;2022-09-16T02:44:09;13.60;99.90
19232;DHT22;9750;48.730;10.294;2022-09-16T02:46:39;13.60;99.90
19232;DHT22;9750;48.730;10.294;2022-09-16T02:49:15;13.60;99.90
19232;DHT22;9750;48.730;10.294;2022-09-16T02:51:56;13.60;99.90
19232;DHT22;9750;48.730;10.294;2022-09-16T02:54:28;13.60;99.90
19232;DHT22;9750;48.730;10.294;2022-09-16T02:56:58;13.70;99.90
19232;DHT22;9750;48.730;10.294;2022-09-16T02:59:25;13.70;99.90
19232;DHT22;9750;48.730;10.294;2022-09-16T03:01:53;13.70;99.90
19232;DHT22;9750;48.730;10.294;2022-09-16T03:04:23;13.80;99.90
19232;DHT22;9750;48.730;10.294;2022-09-16T03:06:51;13.80;99.90
19232;DHT22;9750;48.730;10.294;2022-09-16T03:09:18;13.80;99.90
19232;DHT22;9750;48.730;10.294;2022-09-16T03:15:14;13.80;99.90
19232;DHT22;9750;48.730;10.294;2022-09-16T03:18:02;13.80;99.90
19232;DHT22;9750;48.730;10.294;2022-09-16T03:20:42;13.80;99.90
19232;DHT22;9750;48.730;10.294;2022-09-16T03:23:18;13.80;99.90
19232;DHT22;9750;48.730;10.294;2022-09-16T03:25:55;13.80;99.90
19232;DHT22;9750;48.730;10.294;2022-09-16T03:28:26;13.80;99.90
19232;DHT22;9750;48.730;10.294;2022-09-16T03:31:02;13.70;99.90
19232;DHT22;9750;48.730;10.294;2022-09-16T03:33:34;13.60;99.90
19232;DHT22;9750;48.730;10.294;2022-09-16T03:36:07;13.50;99.90
19232;DHT22;9750;48.730;10.294;2022-09-16T03:38:35;13.50;99.90
19232;DHT22;9750;48.730;10.294;2022-09-16T03:41:05;13.50;99.90
19232;DHT22;9750;48.730;10.294;2022-09-16T03:43:33;13.40;99.90
19232;DHT22;9750;48.730;10.294;2022-09-16T03:46:00;13.50;99.90
19232;DHT22;9750;48.730;10.294;2022-09-16T03:48:28;13.50;99.90
19232;DHT22;9750;48.730;10.294;2022-09-16T03:50:55;13.50;99.90
19232;DHT22;9750;48.730;10.294;2022-09-16T03:53:24;13.40;99.90
19232;DHT22;9750;48.730;10.294;2022-09-16T03:55:51;13.40;99.90
19232;DHT22;9750;48.730;10.294;2022-09-16T03:58:18;13.40;99.90
19232;DHT22;9750;48.730;10.294;2022-09-16T04:00:48;13.40;99.90
19232;DHT22;9750;48.730;10.294;2022-09-16T04:03:16;13.40;99.90
19232;DHT22;9750;48.730;10.294;2022-09-16T04:05:43;13.40;99.90
19232;DHT22;9750;48.730;10.294;2022-09-16T04:08:11;13.40;99.90
19232;DHT22;9750;48.730;10.294;2022-09-16T04:10:40;13.40;99.90
19232;DHT22;9750;48.730;10.294;2022-09-16T04:13:07;13.30;99.90
19232;DHT22;9750;48.730;10.294;2022-09-16T04:15:36;13.30;99.90
19232;DHT22;9750;48.730;10.294;2022-09-16T04:18:03;13.30;99.90
19232;DHT22;9750;48.730;10.294;2022-09-16T04:20:32;13.30;99.90
19232;DHT22;9750;48.730;10.294;2022-09-16T04:23:00;13.20;99.90
19232;DHT22;9750;48.730;10.294;2022-09-16T04:25:27;13.20;99.90
19232;DHT22;9750;48.730;10.294;2022-09-16T04:27:56;13.20;99.90
19232;DHT22;9750;48.730;10.294;2022-09-16T04:30:23;13.20;99.90
19232;DHT22;9750;48.730;10.294;2022-09-16T04:32:52;13.10;99.90
19232;DHT22;9750;48.730;10.294;2022-09-16T04:35:20;13.20;99.90
19232;DHT22;9750;48.730;10.294;2022-09-16T04:37:47;13.10;99.90
19232;DHT22;9750;48.730;10.294;2022-09-16T04:40:15;13.10;99.90
19232;DHT22;9750;48.730;10.294;2022-09-16T04:42:47;13.10;99.90
19232;DHT22;9750;48.730;10.294;2022-09-16T04:45:16;13.10;99.90
19232;DHT22;9750;48.730;10.294;2022-09-16T04:47:44;13.10;99.90
19232;DHT22;9750;48.730;10.294;2022-09-16T04:50:11;13.10;99.90
19232;DHT22;9750;48.730;10.294;2022-09-16T04:56:00;13.10;99.90
19232;DHT22;9750;48.730;10.294;2022-09-16T04:58:28;13.00;99.90
19232;DHT22;9750;48.730;10.294;2022-09-16T05:01:03;13.00;99.90
19232;DHT22;9750;48.730;10.294;2022-09-16T05:03:30;13.00;99.90
19232;DHT22;9750;48.730;10.294;2022-09-16T05:06:04;13.10;99.90
19232;DHT22;9750;48.730;10.294;2022-09-16T05:08:32;13.10;99.90
19232;DHT22;9750;48.730;10.294;2022-09-16T05:11:03;13.00;99.90
19232;DHT22;9750;48.730;10.294;2022-09-16T05:13:31;13.00;99.90
19232;DHT22;9750;48.730;10.294;2022-09-16T05:16:04;13.10;99.90
19232;DHT22;9750;48.730;10.294;2022-09-16T05:18:32;13.10;99.90
19232;DHT22;9750;48.730;10.294;2022-09-16T05:21:01;13.10;99.90
19232;DHT22;9750;48.730;10.294;2022-09-16T05:23:29;13.10;99.90
19232;DHT22;9750;48.730;10.294;2022-09-16T05:26:01;13.10;99.90
19232;DHT22;9750;48.730;10.294;2022-09-16T05:28:29;13.20;99.90
19232;DHT22;9750;48.730;10.294;2022-09-16T05:31:08;13.20;99.90
19232;DHT22;9750;48.730;10.294;2022-09-16T05:33:36;13.30;99.90
19232;DHT22;9750;48.730;10.294;2022-09-16T05:36:04;13.30;99.90
19232;DHT22;9750;48.730;10.294;2022-09-16T05:38:32;13.30;99.90
19232;DHT22;9750;48.730;10.294;2022-09-16T05:41:00;13.40;99.90
19232;DHT22;9750;48.730;10.294;2022-09-16T05:43:27;13.40;99.90
19232;DHT22;9750;48.730;10.294;2022-09-16T05:45:55;13.40;99.90
19232;DHT22;9750;48.730;10.294;2022-09-16T05:48:25;13.40;99.90
19232;DHT22;9750;48.730;10.294;2022-09-16T05:50:53;13.40;99.90
19232;DHT22;9750;48.730;10.294;2022-09-16T05:53:21;13.40;99.90
19232;DHT22;9750;48.730;10.294;2022-09-16T05:55:56;13.40;99.90
19232;DHT22;9750;48.730;10.294;2022-09-16T05:58:24;13.40;99.90
19232;DHT22;9750;48.730;10.294;2022-09-16T06:00:56;13.50;99.90
19232;DHT22;9750;48.730;10.294;2022-09-16T06:03:25;13.50;99.90
19232;DHT22;9750;48.730;10.294;2022-09-16T06:05:58;13.60;99.90
19232;DHT22;9750;48.730;10.294;2022-09-16T06:08:27;13.60;99.90
19232;DHT22;9750;48.730;10.294;2022-09-16T06:10:55;13.70;99.90
19232;DHT22;9750;48.730;10.294;2022-09-16T06:13:22;13.70;99.90
19232;DHT22;9750;48.730;10.294;2022-09-16T06:15:50;13.70;99.90
19232;DHT22;9750;48.730;10.294;2022-09-16T06:18:19;13.70;99.90
19232;DHT22;9750;48.730;10.294;2022-09-16T06:20:49;13.70;99.90
19232;DHT22;9750;48.730;10.294;2022-09-16T06:23:16;13.70;99.90
19232;DHT22;9750;48.730;10.294;2022-09-16T06:25:45;13.70;99.90
19232;DHT22;9750;48.730;10.294;2022-09-16T06:28:12;13.60;99.90
19232;DHT22;9750;48.730;10.294;2022-09-16T06:30:40;13.70;99.90
19232;DHT22;9750;48.730;10.294;2022-09-16T06:36:11;13.70;99.90
19232;DHT22;9750;48.730;10.294;2022-09-16T06:38:38;13.70;99.90
19232;DHT22;9750;48.730;10.294;2022-09-16T06:41:08;13.70;99.90
19232;DHT22;9750;48.730;10.294;2022-09-16T06:43:36;13.70;99.90
19232;DHT22;9750;48.730;10.294;2022-09-16T06:46:05;13.80;99.90
19232;DHT22;9750;48.730;10.294;2022-09-16T06:48:35;13.70;99.90
19232;DHT22;9750;48.730;10.294;2022-09-16T06:51:04;13.70;99.90
19232;DHT22;9750;48.730;10.294;2022-09-16T06:53:33;13.70;99.90
19232;DHT22;9750;48.730;10.294;2022-09-16T06:56:01;13.70;99.90
19232;DHT22;9750;48.730;10.294;2022-09-16T06:58:31;13.80;99.90
19232;DHT22;9750;48.730;10.294;2022-09-16T07:01:03;13.80;99.90
19232;DHT22;9750;48.730;10.294;2022-09-16T07:03:31;13.70;99.90
19232;DHT22;9750;48.730;10.294;2022-09-16T07:05:59;13.70;99.90
19232;DHT22;9750;48.730;10.294;2022-09-16T07:08:28;13.70;99.90
19232;DHT22;9750;48.730;10.294;2022-09-16T07:10:59;13.60;99.90
19232;DHT22;9750;48.730;10.294;2022-09-16T07:13:27;13.70;99.90
19232;DHT22;9750;48.730;10.294;2022-09-16T07:15:57;13.70;99.90
19232;DHT22;9750;48.730;10.294;2022-09-16T07:18:25;13.80;99.90
19232;DHT22;9750;48.730;10.294;2022-09-16T07:20:52;13.70;99.90
19232;DHT22;9750;48.730;10.294;2022-09-16T07:23:19;13.60;99.90
19232;DHT22;9750;48.730;10.294;2022-09-16T07:25:47;13.60;99.90
19232;DHT22;9750;48.730;10.294;2022-09-16T07:28:16;13.60;99.90
19232;DHT22;9750;48.730;10.294;2022-09-16T07:30:43;13.60;99.90
19232;DHT22;9750;48.730;10.294;2022-09-16T07:33:26;13.60;99.90
19232;DHT22;9750;48.730;10.294;2022-09-16T07:35:57;13.40;99.90
19232;DHT22;9750;48.730;10.294;2022-09-16T07:38:24;13.40;99.90
19232;DHT22;9750;48.730;10.294;2022-09-16T07:40:52;13.40;99.90
19232;DHT22;9750;48.730;10.294;2022-09-16T07:43:21;13.30;99.90
19232;DHT22;9750;48.730;10.294;2022-09-16T07:45:54;13.20;99.90
19232;DHT22;9750;48.730;10.294;2022-09-16T07:48:22;13.20;99.90
19232;DHT22;9750;48.730;10.294;2022-09-16T07:50:54;13.10;99.90
19232;DHT22;9750;48.730;10.294;2022-09-16T07:53:22;13.20;99.90
19232;DHT22;9750;48.730;10.294;2022-09-16T07:55:50;13.10;99.90
19232;DHT22;9750;48.730;10.294;2022-09-16T07:58:17;13.00;99.90
19232;DHT22;9750;48.730;10.294;2022-09-16T08:00:47;13.00;99.90
19232;DHT22;9750;48.730;10.294;2022-09-16T08:03:15;12.90;99.90
19232;DHT22;9750;48.730;10.294;2022-09-16T08:05:43;12.90;99.90
19232;DHT22;9750;48.730;10.294;2022-09-16T08:08:10;12.90;99.90
19232;DHT22;9750;48.730;10.294;2022-09-16T08:10:37;12.90;99.90
19232;DHT22;9750;48.730;10.294;2022-09-16T08:16:25;12.80;99.90
19232;DHT22;9750;48.730;10.294;2022-09-16T08:18:55;12.90;99.90
19232;DHT22;9750;48.730;10.294;2022-09-16T08:21:24;12.90;99.90
19232;DHT22;9750;48.730;10.294;2022-09-16T08:23:53;12.90;99.90
19232;DHT22;9750;48.730;10.294;2022-09-16T08:26:21;13.00;99.90
19232;DHT22;9750;48.730;10.294;2022-09-16T08:28:49;12.90;99.90
19232;DHT22;9750;48.730;10.294;2022-09-16T08:31:16;12.90;99.90
19232;DHT22;9750;48.730;10.294;2022-09-16T08:33:47;13.00;99.90
19232;DHT22;9750;48.730;10.294;2022-09-16T08:36:16;13.00;99.90
19232;DHT22;9750;48.730;10.294;2022-09-16T08:38:45;12.90;99.90
19232;DHT22;9750;48.730;10.294;2022-09-16T08:41:27;12.90;99.90
19232;DHT22;9750;48.730;10.294;2022-09-16T08:44:02;13.00;99.90
19232;DHT22;9750;48.730;10.294;2022-09-16T08:46:35;13.10;99.90
19232;DHT22;9750;48.730;10.294;2022-09-16T08:49:15;13.20;99.90
19232;DHT22;9750;48.730;10.294;2022-09-16T08:51:43;13.30;99.90
19232;DHT22;9750;48.730;10.294;2022-09-16T08:54:17;13.40;99.90
19232;DHT22;9750;48.730;10.294;2022-09-16T08:56:49;13.50;99.90
19232;DHT22;9750;48.730;10.294;2022-09-16T08:59:19;13.50;99.90
19232;DHT22;9750;48.730;10.294;2022-09-16T09:01:49;13.60;99.90
19232;DHT22;9750;48.730;10.294;2022-09-16T09:04:23;13.70;99.90
19232;DHT22;9750;48.730;10.294;2022-09-16T09:06:58;13.80;99.90
19232;DHT22;9750;48.730;10.294;2022-09-16T09:09:47;13.90;99.90
19232;DHT22;9750;48.730;10.294;2022-09-16T09:12:23;14.00;99.90
19232;DHT22;9750;48.730;10.294;2022-09-16T09:15:06;14.00;99.90
19232;DHT22;9750;48.730;10.294;2022-09-16T09:17:47;13.90;99.90
19232;DHT22;9750;48.730;10.294;2022-09-16T09:20:28;13.80;99.90
19232;DHT22;9750;48.730;10.294;2022-09-16T09:26:21;13.70;99.90
19232;DHT22;9750;48.730;10.294;2022-09-16T09:29:03;13.60;99.90
19232;DHT22;9750;48.730;10.294;2022-09-16T09:31:38;13.60;99.90
19232;DHT22;9750;48.730;10.294;2022-09-16T09:34:15;13.60;99.90
19232;DHT22;9750;48.730;10.294;2022-09-16T09:37:01;13.60;99.90
19232;DHT22;9750;48.730;10.294;2022-09-16T09:39:53;13.60;99.90
19232;DHT22;9750;48.730;10.294;2022-09-16T09:45:52;13.60;99.90
19232;DHT22;9750;48.730;10.294;2022-09-16T09:48:23;13.60;99.90
19232;DHT22;9750;48.730;10.294;2022-09-16T09:50:52;13.70;99.90
19232;DHT22;9750;48.730;10.294;2022-09-16T09:53:25;13.60;99.90
19232;DHT22;9750;48.730;10.294;2022-09-16T09:55:58;13.50;99.90
19232;DHT22;9750;48.730;10.294;2022-09-16T09:58:32;13.40;99.90
19232;DHT22;9750;48.730;10.294;2022-09-16T10:01:02;13.30;99.90
19232;DHT22;9750;48.730;10.294;2022-09-16T10:03:29;13.30;99.90
19232;DHT22;9750;48.730;10.294;2022-09-16T10:05:57;13.40;99.90
19232;DHT22;9750;48.730;10.294;2022-09-16T10:08:28;13.40;99.90
19232;DHT22;9750;48.730;10.294;2022-09-16T10:10:58;13.40;99.90
19232;DHT22;9750;48.730;10.294;2022-09-16T10:13:28;13.40;99.90
19232;DHT22;9750;48.730;10.294;2022-09-16T10:16:06;13.50;99.90
19232;DHT22;9750;48.730;10.294;2022-09-16T10:18:35;13.60;99.90
19232;DHT22;9750;48.730;10.294;2022-09-16T10:21:05;13.60;99.90
19232;DHT22;9750;48.730;10.294;2022-09-16T10:23:34;13.60;99.90
19232;DHT22;9750;48.730;10.294;2022-09-16T10:26:18;13.60;99.90
19232;DHT22;9750;48.730;10.294;2022-09-16T10:28:59;13.70;99.90
19232;DHT22;9750;48.730;10.294;2022-09-16T10:31:29;13.70;99.90
19232;DHT22;9750;48.730;10.294;2022-09-16T10:33:59;13.70;99.90
19232;DHT22;9750;48.730;10.294;2022-09-16T10:36:31;13.70;99.90
19232;DHT22;9750;48.730;10.294;2022-09-16T10:39:02;13.80;99.90
19232;DHT22;9750;48.730;10.294;2022-09-16T10:41:32;14.00;99.90
19232;DHT22;9750;48.730;10.294;2022-09-16T10:44:01;14.00;99.90
19232;DHT22;9750;48.730;10.294;2022-09-16T10:46:30;13.90;99.90
19232;DHT22;9750;48.730;10.294;2022-09-16T10:49:01;13.90;99.90
19232;DHT22;9750;48.730;10.294;2022-09-16T10:51:34;13.70;99.90
19232;DHT22;9750;48.730;10.294;2022-09-16T10:54:04;13.80;99.90
19232;DHT22;9750;48.730;10.294;2022-09-16T10:56:34;13.80;99.90
19232;DHT22;9750;48.730;10.294;2022-09-16T10:59:13;13.80;99.90
19232;DHT22;9750;48.730;10.294;2022-09-16T11:01:44;13.90;99.90
19232;DHT22;9750;48.730;10.294;2022-09-16T11:04:36;13.90;99.90
19232;DHT22;9750;48.730;10.294;2022-09-16T11:07:19;13.80;99.90
19232;DHT22;9750;48.730;10.294;2022-09-16T11:09:56;13.80;99.90
19232;DHT22;9750;48.730;10.294;2022-09-16T11:16:04;13.80;99.90
19232;DHT22;9750;48.730;10.294;2022-09-16T11:21:43;13.70;99.90
19232;DHT22;9750;48.730;10.294;2022-09-16T11:24:36;13.80;99.90
19232;DHT22;9750;48.730;10.294;2022-09-16T11:27:14;13.80;99.90
19232;DHT22;9750;48.730;10.294;2022-09-16T11:29:58;13.90;99.90
19232;DHT22;9750;48.730;10.294;2022-09-16T11:32:37;13.80;99.90
19232;DHT22;9750;48.730;10.294;2022-09-16T11:35:26;14.00;99.90
19232;DHT22;9750;48.730;10.294;2022-09-16T11:38:01;14.00;99.90
19232;DHT22;9750;48.730;10.294;2022-09-16T11:40:45;14.10;99.90
19232;DHT22;9750;48.730;10.294;2022-09-16T11:43:43;14.20;99.90
19232;DHT22;9750;48.730;10.294;2022-09-16T11:46:20;14.20;99.90
19232;DHT22;9750;48.730;10.294;2022-09-16T11:49:04;14.20;99.90
19232;DHT22;9750;48.730;10.294;2022-09-16T11:51:43;14.10;99.90
19232;DHT22;9750;48.730;10.294;2022-09-16T11:54:24;14.00;99.90
19232;DHT22;9750;48.730;10.294;2022-09-16T11:57:02;14.00;99.90
19232;DHT22;9750;48.730;10.294;2022-09-16T11:59:36;14.10;99.90
19232;DHT22;9750;48.730;10.294;2022-09-16T12:02:15;14.20;99.90
19232;DHT22;9750;48.730;10.294;2022-09-16T12:04:49;14.40;99.90
19232;DHT22;9750;48.730;10.294;2022-09-16T12:07:24;14.60;99.90
19232;DHT22;9750;48.730;10.294;2022-09-16T12:09:56;14.70;99.90
19232;DHT22;9750;48.730;10.294;2022-09-16T12:12:30;14.60;99.90
19232;DHT22;9750;48.730;10.294;2022-09-16T12:15:02;14.50;99.90
19232;DHT22;9750;48.730;10.294;2022-09-16T12:17:32;14.40;99.90
19232;DHT22;9750;48.730;10.294;2022-09-16T12:20:05;14.40;99.90
19232;DHT22;9750;48.730;10.294;2022-09-16T12:22:38;14.50;99.90
19232;DHT22;9750;48.730;10.294;2022-09-16T12:25:10;14.50;99.90
19232;DHT22;9750;48.730;10.294;2022-09-16T12:27:42;14.60;99.90
19232;DHT22;9750;48.730;10.294;2022-09-16T12:30:17;14.50;99.90
19232;DHT22;9750;48.730;10.294;2022-09-16T12:32:52;14.50;99.90
19232;DHT22;9750;48.730;10.294;2022-09-16T12:35:24;14.40;99.90
19232;DHT22;9750;48.730;10.294;2022-09-16T12:37:53;14.30;99.90
19232;DHT22;9750;48.730;10.294;2022-09-16T12:40:24;14.20;99.90
19232;DHT22;9750;48.730;10.294;2022-09-16T12:43:20;14.10;99.90
19232;DHT22;9750;48.730;10.294;2022-09-16T12:52:22;14.10;99.90
19232;DHT22;9750;48.730;10.294;2022-09-16T13:00:53;14.70;99.90
19232;DHT22;9750;48.730;10.294;2022-09-16T13:03:25;14.90;99.90
19232;DHT22;9750;48.730;10.294;2022-09-16T13:05:55;15.10;99.90
19232;DHT22;9750;48.730;10.294;2022-09-16T13:08:26;15.20;99.90
19232;DHT22;9750;48.730;10.294;2022-09-16T13:10:56;15.30;99.90
19232;DHT22;9750;48.730;10.294;2022-09-16T13:13:31;15.30;99.90
19232;DHT22;9750;48.730;10.294;2022-09-16T13:16:01;15.10;99.70
19232;DHT22;9750;48.730;10.294;2022-09-16T13:18:41;15.00;99.50
19232;DHT22;9750;48.730;10.294;2022-09-16T13:21:21;15.10;99.90
19232;DHT22;9750;48.730;10.294;2022-09-16T13:23:58;15.20;99.60
19232;DHT22;9750;48.730;10.294;2022-09-16T13:26:37;15.10;98.60
19232;DHT22;9750;48.730;10.294;2022-09-16T13:32:36;15.00;99.50
19232;DHT22;9750;48.730;10.294;2022-09-16T13:35:05;14.90;98.70
19232;DHT22;9750;48.730;10.294;2022-09-16T13:37:49;14.80;99.20
19232;DHT22;9750;48.730;10.294;2022-09-16T13:40:20;14.80;98.50
19232;DHT22;9750;48.730;10.294;2022-09-16T13:42:47;14.90;99.30
19232;DHT22;9750;48.730;10.294;2022-09-16T13:45:34;14.90;98.80
19232;DHT22;9750;48.730;10.294;2022-09-16T13:48:08;14.90;97.70
19232;DHT22;9750;48.730;10.294;2022-09-16T13:50:38;14.80;98.30
19232;DHT22;9750;48.730;10.294;2022-09-16T13:53:20;14.70;98.00
19232;DHT22;9750;48.730;10.294;2022-09-16T13:55:49;14.70;98.60
19232;DHT22;9750;48.730;10.294;2022-09-16T13:58:21;14.70;98.20
19232;DHT22;9750;48.730;10.294;2022-09-16T14:00:59;14.60;98.40
19232;DHT22;9750;48.730;10.294;2022-09-16T14:03:40;14.50;97.80
19232;DHT22;9750;48.730;10.294;2022-09-16T14:06:42;14.40;98.10
19232;DHT22;9750;48.730;10.294;2022-09-16T14:09:25;14.20;98.20
19232;DHT22;9750;48.730;10.294;2022-09-16T14:11:59;14.20;98.50
19232;DHT22;9750;48.730;10.294;2022-09-16T14:14:31;14.20;98.80
19232;DHT22;9750;48.730;10.294;2022-09-16T14:17:03;14.40;98.90
19232;DHT22;9750;48.730;10.294;2022-09-16T14:19:34;14.50;99.90
19232;DHT22;9750;48.730;10.294;2022-09-16T14:24:59;14.70;98.60
19232;DHT22;9750;48.730;10.294;2022-09-16T14:27:28;14.60;97.90
19232;DHT22;9750;48.730;10.294;2022-09-16T14:30:02;14.50;97.20
19232;DHT22;9750;48.730;10.294;2022-09-16T14:32:31;14.50;97.30
19232;DHT22;9750;48.730;10.294;2022-09-16T14:35:02;14.60;98.00
19232;DHT22;9750;48.730;10.294;2022-09-16T14:37:30;14.60;98.20
19232;DHT22;9750;48.730;10.294;2022-09-16T14:40:05;14.70;97.60
19232;DHT22;9750;48.730;10.294;2022-09-16T14:42:37;14.60;97.10
19232;DHT22;9750;48.730;10.294;2022-09-16T14:45:06;14.70;98.20
19232;DHT22;9750;48.730;10.294;2022-09-16T14:47:37;14.70;97.60
19232;DHT22;9750;48.730;10.294;2022-09-16T14:50:07;14.80;96.80
19232;DHT22;9750;48.730;10.294;2022-09-16T14:52:38;14.80;98.00
19232;DHT22;9750;48.730;10.294;2022-09-16T14:55:16;14.80;98.00
19232;DHT22;9750;48.730;10.294;2022-09-16T14:57:45;14.90;97.50
19232;DHT22;9750;48.730;10.294;2022-09-16T15:00:14;14.90;97.90
19232;DHT22;9750;48.730;10.294;2022-09-16T15:02:47;15.00;96.90
19232;DHT22;9750;48.730;10.294;2022-09-16T15:05:21;15.10;97.00
19232;DHT22;9750;48.730;10.294;2022-09-16T15:07:51;15.10;96.10
19232;DHT22;9750;48.730;10.294;2022-09-16T15:10:22;15.10;95.90
19232;DHT22;9750;48.730;10.294;2022-09-16T15:12:51;15.10;94.80
19232;DHT22;9750;48.730;10.294;2022-09-16T15:15:21;15.00;95.10
19232;DHT22;9750;48.730;10.294;2022-09-16T15:17:53;15.00;95.60
19232;DHT22;9750;48.730;10.294;2022-09-16T15:20:23;15.00;95.30
19232;DHT22;9750;48.730;10.294;2022-09-16T15:22:51;15.10;94.90
19232;DHT22;9750;48.730;10.294;2022-09-16T15:25:22;15.10;95.10
19232;DHT22;9750;48.730;10.294;2022-09-16T15:27:50;15.20;94.90
19232;DHT22;9750;48.730;10.294;2022-09-16T15:30:21;15.20;94.70
19232;DHT22;9750;48.730;10.294;2022-09-16T15:32:49;15.20;94.60
19232;DHT22;9750;48.730;10.294;2022-09-16T15:35:21;15.20;95.00
19232;DHT22;9750;48.730;10.294;2022-09-16T15:37:50;15.30;95.40
19232;DHT22;9750;48.730;10.294;2022-09-16T15:40:34;15.40;95.70
19232;DHT22;9750;48.730;10.294;2022-09-16T15:43:36;15.40;94.30
19232;DHT22;9750;48.730;10.294;2022-09-16T15:46:06;15.20;94.90
19232;DHT22;9750;48.730;10.294;2022-09-16T15:48:43;15.10;95.30
19232;DHT22;9750;48.730;10.294;2022-09-16T15:51:22;15.10;95.30
19232;DHT22;9750;48.730;10.294;2022-09-16T15:53:51;15.00;95.20
19232;DHT22;9750;48.730;10.294;2022-09-16T15:56:25;15.10;95.60
19232;DHT22;9750;48.730;10.294;2022-09-16T15:58:56;15.10;95.50
19232;DHT22;9750;48.730;10.294;2022-09-16T16:01:42;15.10;95.60
19232;DHT22;9750;48.730;10.294;2022-09-16T16:04:20;15.00;95.50
19232;DHT22;9750;48.730;10.294;2022-09-16T16:06:51;14.90;95.40
19232;DHT22;9750;48.730;10.294;2022-09-16T16:09:36;14.90;95.50
19232;DHT22;9750;48.730;10.294;2022-09-16T16:12:08;14.80;94.90
19232;DHT22;9750;48.730;10.294;2022-09-16T16:14:37;14.70;95.10
19232;DHT22;9750;48.730;10.294;2022-09-16T16:17:06;14.70;94.90
19232;DHT22;9750;48.730;10.294;2022-09-16T16:19:34;14.60;95.50
19232;DHT22;9750;48.730;10.294;2022-09-16T16:22:03;14.60;95.40
19232;DHT22;9750;48.730;10.294;2022-09-16T16:24:31;14.60;95.70
19232;DHT22;9750;48.730;10.294;2022-09-16T16:26:58;14.60;95.50
19232;DHT22;9750;48.730;10.294;2022-09-16T16:29:27;14.60;95.80
19232;DHT22;9750;48.730;10.294;2022-09-16T16:31:59;14.70;96.40
19232;DHT22;9750;48.730;10.294;2022-09-16T16:34:27;14.70;96.60
19232;DHT22;9750;48.730;10.294;2022-09-16T16:36:54;14.70;97.60
19232;DHT22;9750;48.730;10.294;2022-09-16T16:39:22;14.80;97.70
19232;DHT22;9750;48.730;10.294;2022-09-16T16:41:50;14.80;97.40
19232;DHT22;9750;48.730;10.294;2022-09-16T16:44:19;14.80;96.10
19232;DHT22;9750;48.730;10.294;2022-09-16T16:46:49;14.90;96.30
19232;DHT22;9750;48.730;10.294;2022-09-16T16:49:17;14.90;97.80
19232;DHT22;9750;48.730;10.294;2022-09-16T16:51:44;14.90;97.00